AKST,Max TemperatureF,Mean TemperatureF,Min TemperatureF,Max Dew PointF,MeanDew PointF,Min DewpointF,Max Humidity, Mean Humidity, Min Humidity, Max Sea Level PressureIn, Mean Sea Level PressureIn, Min Sea Level PressureIn, Max VisibilityMiles, Mean VisibilityMiles, Min VisibilityMiles, Max Wind SpeedMPH, Mean Wind SpeedMPH, Max Gust SpeedMPH,PrecipitationIn, CloudCover, Events, WindDirDegrees
2012-11-1,9,-3,-15,2,-9,-19,87,77,61,30.14,30.05,29.84,10,10,10,4,0,,0.00,3,,25
2012-11-2,9,-1,-11,4,-2,-9,88,82,71,29.97,29.73,29.48,10,10,10,5,1,,0.00,5,Snow,352
2012-11-3,9,-3,-15,4,-7,-19,87,80,67,29.68,29.62,29.43,10,10,10,5,1,,0.00,3,,302
2012-11-4,16,8,0,7,3,-5,87,81,63,29.61,29.52,29.36,10,10,10,7,1,,0.00,6,Snow,330
2012-11-5,15,8,0,11,8,3,88,84,72,29.98,29.79,29.54,10,6,1,8,2,,0.08,8,Snow,346
2012-11-6,16,8,-2,9,5,-7,92,79,55,30.34,30.11,29.86,10,7,2,9,5,,0.03,7,Snow,335
2012-11-7,7,-6,-20,-6,-15,-26,86,77,59,30.69,30.55,30.36,10,10,10,9,4,,0.00,1,,320
2012-11-8,-5,-15,-25,-8,-19,-30,92,77,59,30.72,30.64,30.33,10,10,10,6,1,,0.00,3,,337
2012-11-9,10,-7,-24,7,0,-8,88,82,69,30.51,30.18,29.85,10,6,1,4,0,,0.12,8,Snow,35
2012-11-10,19,10,1,17,13,8,92,87,77,29.96,29.78,29.59,10,7,3,0,0,,0.04,8,Snow,-1
2012-11-11,24,19,14,22,18,16,96,91,86,29.88,29.73,29.59,10,8,0,5,0,,0.00,8,Fog-Snow,316
2012-11-12,21,12,3,18,13,0,93,87,77,30.18,30.00,29.80,10,10,1,5,2,,0.00,7,Fog-Snow,334
2012-11-13,18,7,-4,10,5,-8,92,87,76,30.20,30.02,29.75,10,8,1,6,2,,0.16,7,Snow,1
2012-11-14,16,12,7,14,10,7,93,86,79,29.87,29.56,29.32,10,4,1,6,3,,0.16,8,Snow,353
2012-11-15,15,8,1,13,7,-1,93,85,76,29.82,29.64,29.40,10,10,3,7,3,,0.00,7,Snow,334
2012-11-16,14,4,-5,4,-2,-9,84,68,37,29.82,29.75,29.59,10,10,4,18,10,30,0.01,4,Snow,3
2012-11-17,1,-3,-11,-2,-5,-15,87,82,69,29.73,29.49,29.23,10,5,1,4,0,,0.04,7,Snow,180
2012-11-18,-5,-15,-26,-11,-21,-32,92,80,59,29.73,29.48,29.23,10,8,1,5,1,,0.00,4,Snow,354
2012-11-19,-6,-18,-29,-12,-28,-35,83,74,53,29.92,29.83,29.55,10,10,10,5,1,,0.00,2,,340
2012-11-20,-13,-23,-33,-20,-29,-35,79,72,57,30.07,30.02,29.77,10,10,10,4,1,,0.00,1,,350
2012-11-21,-14,-24,-34,-21,-30,-35,81,74,58,30.23,30.11,29.91,10,10,10,5,1,,0.00,1,,323
2012-11-22,-14,-24,-33,-20,-27,-34,78,74,65,30.28,30.09,29.66,10,10,10,7,1,,0.00,2,,348
2012-11-23,-6,-19,-32,-11,-19,-24,82,76,60,30.07,29.97,29.69,10,10,10,5,1,,0.00,4,,344
2012-11-24,-8,-16,-26,-13,-22,-31,83,76,65,30.37,30.19,29.88,10,10,10,5,1,,0.00,3,,332
2012-11-25,-9,-18,-29,-16,-25,-35,82,74,62,30.64,30.48,30.16,10,10,9,5,1,,0.00,2,Snow,332
2012-11-26,-15,-24,-32,-22,-30,-35,82,74,65,30.73,30.65,30.32,10,10,10,5,1,,0.00,1,,320
2012-11-27,-14,-22,-31,-22,-31,-35,82,73,58,30.56,30.43,30.17,10,10,10,4,1,,0.00,3,,335
2012-11-28,-18,-26,-35,-26,-30,-35,77,73,65,30.44,30.27,29.86,10,10,10,5,1,,0.00,2,,355
2012-11-29,-15,-26,-38,-23,-26,-32,78,72,65,30.11,29.98,29.71,10,10,8,4,1,,0.00,1,,10
2012-11-30,1,-18,-38,-8,-16,-31,82,70,44,30.07,30.00,29.68,10,10,10,15,2,31,0.00,0,,351